Time;durP1;ratioP1;P1;durP2;ratioP2;P2;SDS_P1;SDS_P2;PMS_P1;PMS_P2;Temp;Humidity;BMP_temperature;BMP_pressure;BME280_temperature;BME280_humidity;BME280_pressure;Samples;Min_cycle;Max_cycle;Signal;HPM_P1;HPM_P2
2022/07/08 00:00:01;;;;;;;9.00;2.80;;;;;;;15.09;100.00;99894.56;5071203;28;20861;-96
2022/07/08 00:02:27;;;;;;;7.57;2.75;;;;;;;14.77;100.00;99893.94;5067821;28;20028;-95
2022/07/08 00:04:52;;;;;;;7.68;2.53;;;;;;;14.92;100.00;99906.09;5065743;28;20029;-96
2022/07/08 00:07:23;;;;;;;9.02;3.03;;;;;;;14.85;100.00;99899.16;5070258;28;20082;-96
2022/07/08 00:09:49;;;;;;;8.02;2.85;;;;;;;14.91;100.00;99908.72;5074577;28;20020;-96
2022/07/08 00:12:18;;;;;;;7.85;2.78;;;;;;;14.71;100.00;99901.88;5068564;28;20773;-96
2022/07/08 00:14:43;;;;;;;7.95;2.92;;;;;;;14.78;100.00;99897.44;5069989;28;20032;-96
2022/07/08 00:17:12;;;;;;;7.93;2.90;;;;;;;14.70;100.00;99904.50;5067982;28;20052;-96
2022/07/08 00:19:38;;;;;;;7.75;3.00;;;;;;;14.70;100.00;99904.50;5067927;28;20086;-96
2022/07/08 00:22:20;;;;;;;7.13;2.70;;;;;;;14.52;100.00;99891.47;5080826;28;20088;-96
2022/07/08 00:24:52;;;;;;;8.20;3.10;;;;;;;14.62;100.00;99894.03;5080511;28;20043;-96
2022/07/08 00:27:18;;;;;;;9.20;2.88;;;;;;;14.44;100.00;99889.78;5076693;28;20041;-95
2022/07/08 00:29:44;;;;;;;8.77;2.80;;;;;;;14.49;100.00;99891.50;5062478;28;20026;-96
2022/07/08 00:32:10;;;;;;;7.32;2.70;;;;;;;14.42;100.00;99886.28;5061025;28;20040;-96
2022/07/08 00:34:51;;;;;;;7.07;2.22;;;;;;;14.45;100.00;99881.03;5087066;28;20029;-96
2022/07/08 00:37:17;;;;;;;8.82;2.40;;;;;;;14.66;100.00;99874.78;5061809;28;20040;-96
2022/07/08 00:39:44;;;;;;;6.35;2.28;;;;;;;14.91;100.00;99879.84;5053868;28;20104;-96
2022/07/08 00:42:11;;;;;;;7.88;2.30;;;;;;;14.89;100.00;99877.22;5051349;28;20136;-96
2022/07/08 00:44:37;;;;;;;7.30;2.05;;;;;;;14.84;100.00;99860.63;5053551;28;20035;-96
2022/07/08 00:47:03;;;;;;;8.73;2.20;;;;;;;14.93;100.00;99871.03;5039152;28;20063;-95
2022/07/08 00:49:28;;;;;;;7.78;1.90;;;;;;;14.80;100.00;99869.41;5059150;28;20098;-95
2022/07/08 00:51:56;;;;;;;8.57;2.00;;;;;;;14.83;100.00;99890.41;5088749;28;20039;-96
2022/07/08 00:54:22;;;;;;;9.48;2.28;;;;;;;14.65;100.00;99876.50;5054967;28;20028;-96
2022/07/08 00:57:05;;;;;;;6.38;2.13;;;;;;;14.73;100.00;99889.59;5089350;28;20055;-96
2022/07/08 00:59:32;;;;;;;6.40;2.38;;;;;;;14.82;100.00;99889.53;5058661;28;20052;-96
2022/07/08 01:01:57;;;;;;;9.00;2.13;;;;;;;14.88;100.00;99883.34;5054369;28;20139;-96
2022/07/08 01:04:23;;;;;;;6.72;2.00;;;;;;;14.92;100.00;99879.81;5051873;28;20036;-95
2022/07/08 01:06:51;;;;;;;7.75;2.15;;;;;;;14.82;100.00;99870.25;5085845;28;20048;-94
2022/07/08 01:09:16;;;;;;;7.10;1.92;;;;;;;14.96;100.00;99864.88;5050899;28;20025;-96
2022/07/08 01:11:45;;;;;;;8.10;2.10;;;;;;;14.84;100.00;99868.50;5084274;28;20045;-94
2022/07/08 01:14:12;;;;;;;7.20;2.08;;;;;;;14.95;100.00;99863.16;5051472;28;20123;-96
2022/07/08 01:16:37;;;;;;;7.13;2.22;;;;;;;15.09;100.00;99869.16;5048856;28;20037;-96
2022/07/08 01:19:03;;;;;;;6.68;2.10;;;;;;;15.18;100.00;99863.81;5086738;28;20027;-95
2022/07/08 01:21:30;;;;;;;7.65;2.20;;;;;;;14.99;100.00;99859.63;5057031;28;20539;-96
2022/07/08 01:23:57;;;;;;;8.73;1.90;;;;;;;14.79;100.00;99855.41;5052664;28;20033;-96
2022/07/08 01:26:22;;;;;;;6.80;1.90;;;;;;;14.83;100.00;99866.75;5056941;28;20013;-96
2022/07/08 01:28:48;;;;;;;6.20;1.92;;;;;;;14.87;100.00;99859.75;5086920;28;20033;-96
2022/07/08 01:31:13;;;;;;;7.47;1.92;;;;;;;14.85;100.00;99863.25;5054990;28;20810;-96
2022/07/08 01:33:42;;;;;;;7.03;2.10;;;;;;;14.59;100.00;99857.31;5084498;28;20032;-96
2022/07/08 01:36:08;;;;;;;6.80;2.20;;;;;;;14.68;100.00;99868.63;5058509;28;20037;-96
2022/07/08 01:38:34;;;;;;;7.22;2.00;;;;;;;14.66;100.00;99866.91;5052124;28;20048;-96
2022/07/08 01:41:06;;;;;;;6.35;2.10;;;;;;;14.70;100.00;99868.63;5050375;28;20032;-95
2022/07/08 01:43:32;;;;;;;6.40;1.90;;;;;;;14.67;100.00;99863.41;5051152;28;20056;-95
2022/07/08 01:45:57;;;;;;;9.25;1.95;;;;;;;14.72;100.00;99858.09;5084106;28;20056;-96
2022/07/08 01:48:23;;;;;;;7.95;2.22;;;;;;;14.85;100.00;99851.88;5056521;28;20051;-96
2022/07/08 01:50:48;;;;;;;7.57;2.10;;;;;;;14.66;100.00;99857.25;5054995;28;20052;-96
2022/07/08 01:53:14;;;;;;;6.55;2.00;;;;;;;14.71;100.00;99837.97;5053233;28;20115;-95
2022/07/08 01:55:40;;;;;;;6.03;1.88;;;;;;;14.71;100.00;99837.97;5052465;28;20056;-96
2022/07/08 01:58:09;;;;;;;8.70;2.17;;;;;;;14.69;100.00;99835.38;5047465;28;20041;-96
2022/07/08 02:00:34;;;;;;;6.35;2.13;;;;;;;14.58;100.00;99827.53;5053078;28;20031;-96
2022/07/08 02:03:00;;;;;;;8.10;2.25;;;;;;;14.54;100.00;99833.69;5063695;28;20024;-96
2022/07/08 02:05:28;;;;;;;5.70;2.08;;;;;;;14.49;100.00;99838.13;5064965;28;20036;-96
2022/07/08 02:07:53;;;;;;;6.57;1.88;;;;;;;14.54;100.00;99832.84;5071092;28;20051;-96
2022/07/08 02:10:19;;;;;;;8.20;2.20;;;;;;;14.61;100.00;99850.28;5071022;28;20013;-93
2022/07/08 02:12:44;;;;;;;6.93;2.08;;;;;;;14.70;100.00;99833.59;5070115;28;20040;-96
2022/07/08 02:15:10;;;;;;;7.28;1.92;;;;;;;14.76;100.00;99837.03;5072357;28;20028;-96
2022/07/08 02:17:41;;;;;;;5.95;1.80;;;;;;;14.62;100.00;99813.53;5095781;28;20053;-95
2022/07/08 02:20:13;;;;;;;7.00;1.90;;;;;;;14.57;100.00;99831.06;5066477;28;20035;-96
2022/07/08 02:22:42;;;;;;;8.40;1.80;;;;;;;14.62;100.00;99818.78;5068598;28;20032;-95
2022/07/08 02:25:42;;;;;;;8.35;2.20;;;;;;;14.55;100.00;99811.81;5062482;28;20464;-94
2022/07/08 02:28:08;;;;;;;5.43;1.80;;;;;;;14.60;100.00;99810.03;5018843;28;20124;-96
2022/07/08 02:30:42;;;;;;;6.43;2.03;;;;;;;14.85;100.00;99817.72;5015609;28;20193;-96
2022/07/08 02:33:07;;;;;;;6.80;2.03;;;;;;;14.77;100.00;99809.06;5016077;28;20096;-96
2022/07/08 02:35:41;;;;;;;5.72;1.90;;;;;;;14.95;100.00;99808.88;5017624;28;20587;-95
2022/07/08 02:38:15;;;;;;;;;;;;;;;14.73;100.00;99805.56;5016256;28;20132;-95
2022/07/08 02:40:43;;;;;;;6.90;1.80;;;;;;;14.65;100.00;99808.25;5016290;28;19980;-96
2022/07/08 02:43:10;;;;;;;6.40;1.83;;;;;;;14.58;100.00;99797.81;5016661;28;20056;-96
2022/07/08 02:45:37;;;;;;;6.28;1.67;;;;;;;14.49;100.00;99804.00;5028902;28;20065;-96
2022/07/08 02:48:04;;;;;;;6.35;1.80;;;;;;;14.48;100.00;99811.00;5018878;28;20029;-96
2022/07/08 02:50:30;;;;;;;6.60;1.77;;;;;;;14.40;100.00;99820.69;5041924;28;20128;-96
2022/07/08 02:52:55;;;;;;;5.57;1.60;;;;;;;14.31;100.00;99815.53;5016557;28;20607;-96
2022/07/08 02:55:23;;;;;;;5.80;1.85;;;;;;;14.31;100.00;99815.53;5014235;28;20030;-96
2022/07/08 02:57:48;;;;;;;5.18;1.58;;;;;;;14.44;100.00;99817.16;5015461;28;20041;-95
2022/07/08 03:00:14;;;;;;;4.78;1.52;;;;;;;14.45;100.00;99808.41;5034448;28;20143;-96
2022/07/08 03:02:40;;;;;;;6.30;1.77;;;;;;;14.48;100.00;99816.25;5017042;28;20300;-96
2022/07/08 03:05:05;;;;;;;5.05;1.48;;;;;;;14.48;100.00;99815.38;5082285;28;20029;-96
2022/07/08 03:07:34;;;;;;;5.78;1.90;;;;;;;14.42;100.00;99808.44;5054296;28;20063;-96
2022/07/08 03:10:00;;;;;;;4.88;1.50;;;;;;;14.46;100.00;99817.13;5060996;28;20472;-96
2022/07/08 03:12:29;;;;;;;6.90;1.50;;;;;;;14.37;100.00;99818.09;5054036;28;20117;-96
2022/07/08 03:14:54;;;;;;;6.13;1.58;;;;;;;14.31;100.00;99819.00;5062979;28;20025;-96
2022/07/08 03:17:22;;;;;;;4.78;1.55;;;;;;;14.23;100.00;99831.31;5054601;28;20049;-96
2022/07/08 03:19:47;;;;;;;5.30;1.73;;;;;;;14.23;100.00;99828.69;5055963;28;20037;-96
2022/07/08 03:22:20;;;;;;;6.65;1.70;;;;;;;14.16;100.00;99835.72;5053000;28;20032;-95
2022/07/08 03:24:46;;;;;;;6.05;1.63;;;;;;;14.11;100.00;99831.38;5053324;28;20033;-95
2022/07/08 03:27:16;;;;;;;4.95;1.60;;;;;;;14.08;100.00;99828.78;5056193;28;20481;-96
2022/07/08 03:29:42;;;;;;;4.95;1.50;;;;;;;14.20;100.00;99830.47;5056566;28;20545;-96
2022/07/08 03:32:12;;;;;;;4.47;1.50;;;;;;;14.20;100.00;99822.59;5054892;28;20096;-96
2022/07/08 03:34:38;;;;;;;6.35;1.52;;;;;;;14.23;100.00;99818.19;5060691;28;20106;-95
2022/07/08 03:37:03;;;;;;;5.35;1.30;;;;;;;14.26;100.00;99812.03;5085582;28;20057;-96
2022/07/08 03:39:37;;;;;;;4.63;1.30;;;;;;;14.25;100.00;99818.16;5081323;28;20035;-96
2022/07/08 03:42:03;;;;;;;4.90;1.40;;;;;;;14.19;100.00;99821.72;5049683;28;20076;-95
2022/07/08 03:44:29;;;;;;;5.15;1.45;;;;;;;14.15;100.00;99823.50;5054838;28;20040;-94
2022/07/08 03:46:55;;;;;;;5.32;1.38;;;;;;;14.22;100.00;99816.44;5058381;28;20019;-96
2022/07/08 03:49:20;;;;;;;4.45;1.30;;;;;;;14.21;100.00;99812.09;5090406;28;20033;-96
2022/07/08 03:51:46;;;;;;;6.47;1.60;;;;;;;14.21;100.00;99817.34;5055745;28;20036;-95
2022/07/08 03:54:12;;;;;;;5.28;1.40;;;;;;;14.20;100.00;99820.84;5057997;28;20032;-96
2022/07/08 03:56:37;;;;;;;5.97;1.65;;;;;;;14.27;100.00;99822.53;5057800;28;20056;-96
2022/07/08 03:59:03;;;;;;;5.72;1.60;;;;;;;14.10;100.00;99829.66;5089214;28;20107;-96
2022/07/08 04:01:28;;;;;;;5.47;1.67;;;;;;;14.17;100.00;99832.22;5059139;28;20025;-96
2022/07/08 04:03:54;;;;;;;6.43;1.83;;;;;;;14.16;100.00;99829.59;5062817;28;20435;-96
2022/07/08 04:06:20;;;;;;;6.80;1.70;;;;;;;14.23;100.00;99833.06;5061465;28;20118;-96
2022/07/08 04:08:48;;;;;;;6.43;1.60;;;;;;;14.17;100.00;99839.22;5063216;28;20025;-96
2022/07/08 04:11:14;;;;;;;4.72;1.30;;;;;;;14.23;100.00;99843.56;5059140;28;20508;-96
2022/07/08 04:13:41;;;;;;;6.13;1.60;;;;;;;14.29;100.00;99839.16;5059093;28;20071;-96
2022/07/08 04:16:11;;;;;;;5.47;1.60;;;;;;;14.37;100.00;99838.22;5063710;28;20037;-96
2022/07/08 04:18:41;;;;;;;5.20;1.52;;;;;;;14.30;100.00;99840.88;5059175;28;20029;-95
2022/07/08 04:21:08;;;;;;;5.40;1.60;;;;;;;14.46;100.00;99841.66;5071802;28;20028;-95
2022/07/08 04:23:34;;;;;;;5.65;1.50;;;;;;;14.34;100.00;99841.72;5060478;28;20037;-96
2022/07/08 04:26:00;;;;;;;6.15;1.65;;;;;;;14.36;100.00;99833.84;5060989;28;20043;-96
2022/07/08 04:28:33;;;;;;;6.97;1.65;;;;;;;14.50;100.00;99835.50;5060308;28;20056;-96
2022/07/08 04:30:59;;;;;;;5.25;1.70;;;;;;;14.48;100.00;99842.50;5063119;28;20088;-96
2022/07/08 04:33:25;;;;;;;6.30;1.95;;;;;;;14.59;100.00;99849.44;5055425;28;20131;-96
2022/07/08 04:35:51;;;;;;;9.98;2.17;;;;;;;14.60;100.00;99844.16;5058604;28;20036;-96
2022/07/08 04:38:17;;;;;;;5.93;1.80;;;;;;;14.55;100.00;99843.31;5071246;28;20025;-95
2022/07/08 04:40:42;;;;;;;5.78;1.67;;;;;;;14.62;100.00;99845.03;5057278;28;20087;-95
2022/07/08 04:43:09;;;;;;;5.88;1.77;;;;;;;14.64;100.00;99831.91;5060015;28;20085;-96
2022/07/08 04:45:34;;;;;;;6.55;2.10;;;;;;;14.57;100.00;99833.69;5092290;28;20025;-96
2022/07/08 04:48:01;;;;;;;6.88;2.00;;;;;;;14.57;100.00;99846.81;5061061;28;21851;-96
2022/07/08 04:50:27;;;;;;;5.90;1.60;;;;;;;14.72;100.00;99840.59;5059846;28;21625;-96
2022/07/08 04:52:53;;;;;;;6.63;1.83;;;;;;;14.59;100.00;99833.69;5061692;28;20039;-96
2022/07/08 04:55:28;;;;;;;7.95;1.80;;;;;;;15.18;100.00;99847.16;5094306;28;20028;-95
2022/07/08 04:58:03;;;;;;;7.93;1.95;;;;;;;15.16;100.00;99833.19;5053353;28;20025;-96
2022/07/08 05:00:32;;;;;;;6.55;1.90;;;;;;;14.58;100.00;99838.03;5068036;28;20495;-96
2022/07/08 05:02:58;;;;;;;6.47;1.70;;;;;;;14.52;100.00;99840.72;5061487;28;20028;-96
2022/07/08 05:05:24;;;;;;;9.15;2.42;;;;;;;14.64;100.00;99840.66;5069756;28;20028;-96
2022/07/08 05:07:51;;;;;;;6.47;1.80;;;;;;;14.68;100.00;99839.75;5054509;28;20033;-96
2022/07/08 05:10:23;;;;;;;6.65;1.98;;;;;;;14.93;100.00;99850.03;5072044;28;20040;-96
2022/07/08 05:12:59;;;;;;;6.18;1.70;;;;;;;14.95;100.00;99863.16;5099891;28;20071;-96
2022/07/08 05:15:35;;;;;;;7.35;2.10;;;;;;;14.93;100.00;99850.03;5068354;28;20029;-96
2022/07/08 05:18:01;;;;;;;6.07;2.05;;;;;;;15.07;100.00;99851.66;5054019;28;20116;-96
2022/07/08 05:20:27;;;;;;;6.90;2.10;;;;;;;15.04;100.00;99851.69;5058264;28;20052;-96
2022/07/08 05:22:52;;;;;;;6.82;2.05;;;;;;;15.84;100.00;99849.06;5064803;28;20037;-96
2022/07/08 05:25:20;;;;;;;6.30;1.73;;;;;;;15.74;100.00;99847.41;5071069;28;20023;-96
2022/07/08 05:27:49;;;;;;;8.25;1.92;;;;;;;15.87;100.00;99845.53;5073831;28;20021;-96
2022/07/08 05:30:14;;;;;;;6.95;2.10;;;;;;;15.99;100.00;99845.34;5069949;28;20025;-95
2022/07/08 05:32:41;;;;;;;6.10;1.95;;;;;;;16.15;100.00;99848.63;5086753;28;20089;-96
2022/07/08 05:35:08;;;;;;;5.45;1.60;;;;;;;16.34;100.00;99845.75;5063627;28;20040;-96
2022/07/08 05:37:36;;;;;;;5.30;1.80;;;;;;;16.30;100.00;99841.41;5058316;28;20055;-96
2022/07/08 05:40:02;;;;;;;6.65;1.45;;;;;;;16.49;100.00;99847.25;5061560;28;20025;-94
2022/07/08 05:45:50;;;;;;;8.13;2.00;;;;;;;16.60;100.00;99842.69;5066144;28;20039;-96
2022/07/08 05:48:17;;;;;;;5.70;1.70;;;;;;;16.79;100.00;99848.53;5098178;22;20011;-96
2022/07/08 05:50:42;;;;;;;5.70;1.55;;;;;;;16.76;100.00;99853.84;5036032;28;20045;-96
2022/07/08 05:53:08;;;;;;;6.00;1.73;;;;;;;16.86;100.00;99860.69;5037425;28;20104;-96
2022/07/08 05:55:34;;;;;;;6.07;1.80;;;;;;;16.89;100.00;99850.13;5037917;28;20065;-96
2022/07/08 05:58:03;;;;;;;7.38;1.90;;;;;;;16.95;100.00;99867.63;5051292;28;20095;-96
2022/07/08 06:00:29;;;;;;;6.13;1.75;;;;;;;16.98;100.00;99867.56;5129575;22;20152;-96
2022/07/08 06:02:55;;;;;;;6.40;1.92;;;;;;;17.08;100.00;99876.16;5063353;28;20688;-96
2022/07/08 06:05:25;;;;;;;7.22;2.10;;;;;;;17.16;100.00;99884.81;5059649;28;20044;-96
2022/07/08 06:07:51;;;;;;;5.50;1.77;;;;;;;16.96;100.00;99877.22;5066871;28;20078;-96
2022/07/08 06:10:17;;;;;;;6.18;1.88;;;;;;;16.99;100.00;99877.22;5052997;28;20025;-96
2022/07/08 06:12:44;;;;;;;7.18;1.98;;;;;;;16.83;100.00;99878.31;5069770;28;20029;-96
2022/07/08 06:15:14;;;;;;;7.20;2.42;;;;;;;16.73;100.00;99888.16;5056035;28;20059;-95
2022/07/08 06:17:40;;;;;;;7.63;2.50;;;;;;;16.86;100.00;99889.66;5052686;28;20140;-95
2022/07/08 06:20:08;;;;;;;6.57;2.17;;;;;;;16.85;100.00;99890.59;5075781;28;20108;-96
2022/07/08 06:22:35;;;;;;;7.55;2.20;;;;;;;16.90;100.00;99890.53;5074809;28;20009;-96
2022/07/08 06:25:01;;;;;;;8.98;2.67;;;;;;;16.88;100.00;99895.81;5055495;28;20048;-94
2022/07/08 06:27:27;;;;;;;8.77;2.72;;;;;;;16.98;100.00;99899.19;5054838;28;20033;-96
2022/07/08 06:29:52;;;;;;;7.00;2.42;;;;;;;17.02;100.00;99897.34;5080421;28;20406;-96
2022/07/08 06:32:18;;;;;;;7.63;2.42;;;;;;;16.62;100.00;99903.22;5057714;28;20084;-96
2022/07/08 06:34:46;;;;;;;11.77;2.78;;;;;;;16.98;100.00;99904.44;5076780;28;20024;-96
2022/07/08 06:37:12;;;;;;;8.38;2.40;;;;;;;17.23;100.00;99902.25;5068288;28;20032;-96
2022/07/08 06:39:37;;;;;;;7.97;2.50;;;;;;;17.14;100.00;99897.13;5062899;28;20089;-96
2022/07/08 06:42:09;;;;;;;6.82;2.30;;;;;;;17.36;100.00;99894.13;5062827;28;20087;-96
2022/07/08 06:44:42;;;;;;;8.57;2.95;;;;;;;17.48;100.00;99900.91;5062912;28;20029;-96
2022/07/08 06:47:11;;;;;;;6.45;2.30;;;;;;;17.31;100.00;99891.53;5063437;28;20696;-96
2022/07/08 06:49:43;;;;;;;6.40;2.40;;;;;;;17.21;100.00;99908.44;5057744;28;20029;-96
2022/07/08 06:52:08;;;;;;;7.70;2.40;;;;;;;17.29;100.00;99905.69;5046449;28;20033;-96
2022/07/08 06:54:37;;;;;;;8.60;2.85;;;;;;;17.03;100.00;99923.66;5070139;28;20031;-96
2022/07/08 06:57:07;;;;;;;7.45;2.58;;;;;;;17.32;100.00;99914.38;5075167;28;20021;-96
2022/07/08 06:59:36;;;;;;;8.65;3.05;;;;;;;17.17;100.00;99917.31;5075779;28;20400;-96
2022/07/08 07:02:03;;;;;;;8.60;2.80;;;;;;;17.20;100.00;99914.59;5072946;28;20045;-96
2022/07/08 07:04:28;;;;;;;6.95;2.70;;;;;;;17.46;100.00;99918.56;5078704;28;20051;-96
2022/07/08 07:06:55;;;;;;;7.63;2.78;;;;;;;17.39;100.00;99912.50;5062933;28;20016;-96
2022/07/08 07:09:21;;;;;;;9.30;3.17;;;;;;;17.19;100.00;99921.66;5066884;28;20036;-96
2022/07/08 07:20:53;;;;;;;8.57;3.40;;;;;;;17.04;100.00;99919.28;5049642;28;20049;-96
2022/07/08 07:23:18;;;;;;;8.65;3.25;;;;;;;17.23;100.00;99917.22;5050738;28;20488;-95
2022/07/08 07:25:44;;;;;;;7.57;3.35;;;;;;;17.11;100.00;99920.91;5052865;28;20033;-96
2022/07/08 07:28:11;;;;;;;8.20;3.35;;;;;;;17.27;100.00;99913.63;5052895;28;20040;-96
2022/07/08 07:30:59;;;;;;;8.88;3.50;;;;;;;17.25;100.00;99919.81;5051289;28;20032;-96
2022/07/08 07:33:27;;;;;;;9.25;3.50;;;;;;;17.28;100.00;99912.69;5042928;28;20500;-96
2022/07/08 07:35:53;;;;;;;7.65;3.20;;;;;;;17.34;100.00;99920.53;5051129;28;20029;-95
2022/07/08 07:38:19;;;;;;;9.40;3.15;;;;;;;17.39;100.00;99917.78;5051715;28;20037;-96
2022/07/08 07:40:48;;;;;;;8.00;3.80;;;;;;;17.36;100.00;99918.72;5050691;28;20183;-96
2022/07/08 07:43:13;;;;;;;7.18;3.08;;;;;;;17.37;100.00;99931.00;5055244;28;20029;-93
2022/07/08 07:45:42;;;;;;;8.95;3.65;;;;;;;17.39;100.00;99931.81;5060217;28;20091;-96
2022/07/08 07:48:20;;;;;;;9.15;3.03;;;;;;;17.51;100.00;99907.00;5062238;28;20025;-96
2022/07/08 07:51:00;;;;;;;8.30;3.38;;;;;;;17.40;100.00;99935.34;5059363;28;20115;-96
2022/07/08 07:53:26;;;;;;;9.77;3.55;;;;;;;17.40;100.00;99925.66;5058004;28;20029;-96
2022/07/08 07:55:52;;;;;;;9.13;3.80;;;;;;;17.01;100.00;99927.25;5059854;28;20725;-96
2022/07/08 07:58:21;;;;;;;9.35;3.90;;;;;;;17.37;100.00;99924.88;5061488;28;20028;-96
2022/07/08 08:00:49;;;;;;;8.43;3.53;;;;;;;17.74;100.00;99932.06;5055151;28;21935;-96
2022/07/08 08:03:15;;;;;;;8.68;3.60;;;;;;;17.90;100.00;99922.94;5069926;28;20093;-96
2022/07/08 08:05:42;;;;;;;8.40;3.40;;;;;;;18.15;100.00;99930.41;5051509;28;20045;-96
2022/07/08 08:08:08;;;;;;;9.15;3.40;;;;;;;17.87;100.00;99935.31;5056758;28;20025;-96
2022/07/08 08:10:34;;;;;;;10.30;3.75;;;;;;;17.67;100.00;99926.03;5058590;28;20029;-96
2022/07/08 08:13:00;;;;;;;10.20;3.80;;;;;;;17.65;100.00;99943.69;5052288;28;20047;-96
2022/07/08 08:15:29;;;;;;;10.25;3.90;;;;;;;17.51;100.00;99936.03;5049733;28;20048;-96
2022/07/08 08:17:57;;;;;;;9.80;3.92;;;;;;;17.88;100.00;99942.34;5054307;28;20053;-96
2022/07/08 08:20:31;;;;;;;9.73;4.00;;;;;;;17.82;100.00;99939.84;5083633;28;20123;-96
2022/07/08 08:23:00;;;;;;;7.97;3.63;;;;;;;18.03;100.00;99947.34;5050295;28;20048;-96
2022/07/08 08:25:31;;;;;;;8.25;3.78;;;;;;;17.97;100.00;99943.97;5055816;28;20063;-96
2022/07/08 08:27:57;;;;;;;9.05;3.78;;;;;;;17.72;100.00;99947.06;5048615;28;20040;-96
2022/07/08 08:30:23;;;;;;;10.30;4.18;;;;;;;17.37;100.00;99938.06;5049680;28;20029;-96
2022/07/08 08:32:49;;;;;;;7.93;3.95;;;;;;;17.44;100.00;99947.59;5051516;28;20116;-96
2022/07/08 08:35:16;;;;;;;9.48;4.03;;;;;;;17.40;100.00;99938.84;5052190;28;20052;-96
2022/07/08 08:37:42;;;;;;;11.95;3.85;;;;;;;17.84;100.00;99938.94;5057741;28;20036;-96
2022/07/08 08:40:10;;;;;;;8.65;4.00;;;;;;;17.59;100.00;99935.88;5054882;28;20096;-96
2022/07/08 08:42:37;;;;;;;8.65;3.75;;;;;;;17.66;100.00;99928.72;5051852;28;20024;-96
2022/07/08 08:45:03;;;;;;;8.68;3.95;;;;;;;17.65;100.00;99927.00;5049003;28;20044;-96
2022/07/08 08:47:31;;;;;;;10.10;3.53;;;;;;;17.91;100.00;99929.13;5050382;28;20030;-96
2022/07/08 08:50:53;;;;;;;9.13;3.20;;;;;;;17.91;100.00;99926.47;5050346;28;20034;-96
2022/07/08 08:52:49;;;;;;;9.93;3.03;;;;;;;17.92;100.00;99917.66;5054404;28;20044;-96
2022/07/08 08:55:30;;;;;;;8.10;3.00;;;;;;;18.12;100.00;99906.72;5078528;28;20021;-96
2022/07/08 08:58:04;;;;;;;7.15;2.60;;;;;;;18.08;100.00;99916.44;5051671;28;20079;-95
2022/07/08 09:00:55;;;;;;;7.38;2.60;;;;;;;18.29;100.00;99921.28;5052978;28;20044;-97
2022/07/08 09:03:20;;;;;;;7.93;2.65;;;;;;;18.26;100.00;99914.34;5040464;28;20041;-95
2022/07/08 09:06:03;;;;;;;7.97;2.60;;;;;;;18.87;100.00;99914.72;5052171;28;20029;-96
2022/07/08 09:09:10;;;;;;;7.35;2.08;;;;;;;18.28;100.00;99904.59;5054113;28;20033;-95
2022/07/08 09:11:44;;;;;;;7.18;2.30;;;;;;;18.37;100.00;99899.09;5086256;28;20039;-96
2022/07/08 09:15:01;;;;;;;;;;;;;;;;;;;;;
2022/07/08 09:17:28;;;;;;;6.65;2.08;;;;;;;18.60;100.00;99895.91;5019007;28;20037;-96
2022/07/08 09:20:09;;;;;;;6.50;2.08;;;;;;;18.87;100.00;99897.94;4996444;28;20042;-95
2022/07/08 09:22:35;;;;;;;6.78;2.20;;;;;;;18.88;100.00;99905.00;4993781;28;20076;-96
2022/07/08 09:25:06;;;;;;;6.65;2.00;;;;;;;18.96;100.00;99910.09;5001324;28;20046;-96
2022/07/08 09:27:35;;;;;;;7.05;2.03;;;;;;;18.74;100.00;99897.38;5001058;28;20037;-96
2022/07/08 09:30:01;;;;;;;8.32;2.10;;;;;;;18.85;100.00;99900.59;4999625;28;20125;-95
2022/07/08 09:32:27;;;;;;;6.20;1.98;;;;;;;19.03;100.00;99894.03;4996153;28;20129;-94
2022/07/08 09:34:52;;;;;;;8.13;2.10;;;;;;;19.25;100.00;99896.13;4989314;28;20545;-92
2022/07/08 09:37:20;;;;;;;6.75;2.17;;;;;;;18.80;100.00;99899.84;5015696;28;20034;-94
2022/07/08 09:39:49;;;;;;;6.03;1.95;;;;;;;19.00;100.00;99888.81;4993852;28;20029;-95
2022/07/08 09:42:17;;;;;;;6.38;1.90;;;;;;;19.05;100.00;99883.41;5005578;28;20615;-96
2022/07/08 09:44:51;;;;;;;5.78;1.88;;;;;;;19.59;100.00;99879.31;4989389;28;20080;-95
2022/07/08 09:47:17;;;;;;;6.75;2.10;;;;;;;19.61;100.00;99894.25;4993151;28;20157;-96
2022/07/08 09:49:53;;;;;;;6.30;2.00;;;;;;;19.75;100.00;99880.63;4993911;28;20124;-96
2022/07/08 09:52:25;;;;;;;6.75;2.00;;;;;;;19.35;100.00;99880.88;5077612;28;20032;-95
2022/07/08 09:55:25;;;;;;;5.93;1.77;;;;;;;19.38;100.00;99888.72;5071477;28;20056;-96
2022/07/08 09:57:52;;;;;;;9.00;2.25;;;;;;;19.26;100.00;99889.91;5054550;28;20068;-96
2022/07/08 10:00:20;;;;;;;7.25;2.17;;;;;;;19.37;100.00;99889.63;5052770;28;20087;-96
2022/07/08 10:02:49;;;;;;;6.15;1.98;;;;;;;19.51;100.00;99879.56;5047437;28;20032;-96
2022/07/08 10:05:15;;;;;;;6.45;2.13;;;;;;;19.34;100.00;99884.41;5052485;28;20094;-96
2022/07/08 10:07:41;;;;;;;5.82;1.90;;;;;;;19.23;100.00;99896.16;5053986;28;20021;-96
2022/07/08 10:10:38;;;;;;;;;;;;;;;;;;;;;
2022/07/08 10:13:05;;;;;;;5.82;2.08;;;;;;;19.82;100.00;99877.81;5052838;28;20119;-96
2022/07/08 10:15:33;;;;;;;7.85;2.40;;;;;;;20.03;100.00;99877.19;5051419;28;20029;-95
2022/07/08 10:18:20;;;;;;;7.10;2.40;;;;;;;20.97;100.00;99889.28;5075127;22;20048;-96
2022/07/08 10:20:56;;;;;;;6.10;2.13;;;;;;;21.24;100.00;99883.91;5071877;28;20032;-96
2022/07/08 10:23:51;;;;;;;7.22;2.35;;;;;;;21.16;100.00;99884.22;5072388;28;20016;-96
2022/07/08 10:26:36;;;;;;;6.93;2.20;;;;;;;20.56;100.00;99878.22;5071550;28;20097;-96
2022/07/08 10:29:05;;;;;;;6.20;1.92;;;;;;;21.16;100.00;99875.41;5071504;28;20024;-96
2022/07/08 10:31:41;;;;;;;7.50;2.40;;;;;;;20.49;100.00;99871.38;5068330;28;20028;-96
2022/07/08 10:34:08;;;;;;;8.43;2.20;;;;;;;21.00;100.00;99870.59;5075056;28;20070;-96
2022/07/08 10:36:53;;;;;;;7.15;2.20;;;;;;;20.88;100.00;99877.19;5073455;28;20033;-96
2022/07/08 10:39:37;;;;;;;6.35;2.00;;;;;;;21.31;100.00;99885.47;5071784;28;20047;-96
2022/07/08 10:42:05;;;;;;;6.18;2.42;;;;;;;20.76;100.00;99885.56;5085678;28;20039;-96
2022/07/08 10:44:46;;;;;;;8.77;2.40;;;;;;;20.79;100.00;99890.75;5075346;28;20025;-96
2022/07/08 10:57:24;;;;;;;6.53;1.98;;;;;;;21.24;100.00;99892.78;1130625;23;20335;-96
2022/07/08 11:00:25;;;;;;;6.88;2.00;;;;;;;20.68;100.00;99901.72;5119215;22;20048;-96
2022/07/08 11:27:46;;;;;;;7.43;2.00;;;;;;;21.19;100.00;99889.41;5075542;28;20048;-96
2022/07/08 11:33:50;;;;;;;6.57;1.85;;;;;;;21.60;100.00;99892.41;5087916;28;20039;-96
2022/07/08 11:36:19;;;;;;;7.53;1.90;;;;;;;21.18;100.00;99886.81;5092445;28;20077;-96
2022/07/08 11:38:53;;;;;;;5.68;1.83;;;;;;;21.01;100.00;99893.56;5070340;28;20032;-96
2022/07/08 11:41:25;;;;;;;5.45;1.60;;;;;;;21.95;100.00;99882.25;5173605;23;20047;-96
2022/07/08 11:43:51;;;;;;;5.50;1.63;;;;;;;21.41;100.00;99892.16;5104053;28;20126;-96
2022/07/08 11:46:44;;;;;;;6.65;1.83;;;;;;;22.57;100.00;99894.97;5106579;28;20040;-96
2022/07/08 11:49:11;;;;;;;6.95;1.90;;;;;;;22.53;100.00;99893.38;5109250;28;20427;-96
2022/07/08 11:51:36;;;;;;;5.55;1.55;;;;;;;22.82;100.00;99890.38;5125304;28;20047;-96
2022/07/08 11:54:06;;;;;;;6.88;1.90;;;;;;;22.13;100.00;99893.97;5102607;28;20067;-96
2022/07/08 11:56:44;;;;;;;5.53;1.75;;;;;;;21.56;100.00;99904.06;5105616;28;20028;-95
2022/07/08 11:59:15;;;;;;;10.45;2.03;;;;;;;21.99;100.00;99891.84;5120579;28;20047;-96
2022/07/08 12:01:44;;;;;;;5.20;1.70;;;;;;;22.72;100.00;99904.13;5120282;28;20044;-96
2022/07/08 12:04:17;;;;;;;7.95;1.92;;;;;;;21.61;100.00;99904.78;5129305;28;20015;-96
2022/07/08 12:06:49;;;;;;;7.22;1.77;;;;;;;23.05;100.00;99888.56;5093695;28;20066;-96
2022/07/08 12:09:21;;;;;;;5.80;1.88;;;;;;;22.26;100.00;99881.06;5100862;28;20043;-96
2022/07/08 12:11:50;;;;;;;7.10;1.75;;;;;;;23.04;100.00;99889.47;5101868;28;20023;-96
2022/07/08 12:14:24;;;;;;;9.07;2.30;;;;;;;22.03;100.00;99881.97;5113063;28;20552;-96
2022/07/08 12:16:52;;;;;;;4.88;1.60;;;;;;;21.85;100.00;99869.38;5100561;28;20027;-96
2022/07/08 12:20:08;;;;;;;6.85;1.90;;;;;;;22.95;100.00;99879.22;5091110;28;20023;-96
2022/07/08 12:23:19;;;;;;;;;;;;;;;;;;;;;
2022/07/08 12:26:25;;;;;;;6.95;1.60;;;;;;;22.22;100.00;99875.94;5103625;27;20118;-96
2022/07/08 12:28:55;;;;;;;6.05;1.95;;;;;;;21.86;100.00;99871.13;5101422;28;20069;-96
2022/07/08 12:35:12;;;;;;;6.90;1.90;;;;;;;22.46;100.00;99877.69;5127539;27;20392;-96